KLVM/LVM METAR and TAF weather

Enter ICAO airport designator
Station Type Date Time Source
KLVM METAR 2019/11/22 00:53 UTC NOAA

KLVM 220053Z AUTO 24006KT 10SM CLR M04/M08 A2999 RMK AO2 SLP206 T10391078


Station Type Date Time Source
KLVM Decoded METAR 2019/11/22 00:53 UTC NOAA

LIVINGSTON MISSION FIELD, MT, United States (KLVM) 45-42N 110-26W 1418M
Nov 21, 2019 - 07:53 PM EST / 2019.11.22 0053 UTC
Wind: from the WSW (240 degrees) at 7 MPH (6 KT):0
Visibility: 10 mile(s):0
Sky conditions: clear
Temperature: 25.0 F (-3.9 C)
Windchill: 17 F (-8 C):1
Dew Point: 18.0 F (-7.8 C)
Relative Humidity: 74%
Pressure (altimeter): 29.99 in. Hg (1015 hPa)
ob: KLVM 220053Z AUTO 24006KT 10SM CLR M04/M08 A2999 RMK AO2 SLP206 T10391078
cycle: 1

Station Type Date Time Source
KLVM TAF 2019/11/21 18:36 UTC NOAA

TAF KLVM 211734Z 2118/2218 29008KT P6SM FEW025
FM220600 24020G30KT P6SM SKC
FM221300 23026G38KT P6SM FEW200

Example: see airport list